createdAt,value
2024-05-09T00:00:06.424Z,31.50
2024-05-09T00:10:14.705Z,26.30
2024-05-09T00:20:32.340Z,24.50
2024-05-09T00:30:39.754Z,23.20
2024-05-09T00:40:43.588Z,22.40
2024-05-09T00:50:46.721Z,22.40
2024-05-09T01:00:49.556Z,21.30
2024-05-09T01:10:52.288Z,21.40
2024-05-09T01:20:55.025Z,20.10
2024-05-09T01:30:57.585Z,19.60
2024-05-09T01:41:00.209Z,19.20
2024-05-09T01:51:03.966Z,18.90
2024-05-09T02:01:06.641Z,18.60
2024-05-09T02:11:09.329Z,18.30
2024-05-09T02:21:12.092Z,18.10
2024-05-09T02:31:14.692Z,18.20
2024-05-09T02:41:17.303Z,18.10
2024-05-09T02:51:19.941Z,18.00
2024-05-09T03:01:22.601Z,17.80
2024-05-09T03:11:25.326Z,17.50
2024-05-09T03:21:28.009Z,17.30
2024-05-09T03:31:30.598Z,17.00
2024-05-09T03:41:33.357Z,16.90
2024-05-09T03:51:36.148Z,16.50
2024-05-09T04:01:38.758Z,16.20
2024-05-09T04:11:41.508Z,15.70
2024-05-09T04:21:44.209Z,15.40
2024-05-09T04:31:46.843Z,15.00
2024-05-09T04:41:49.566Z,14.80
2024-05-09T04:51:52.241Z,14.70
2024-05-09T05:01:54.984Z,14.70
2024-05-09T05:11:57.819Z,14.30
2024-05-09T05:22:00.510Z,14.30
2024-05-09T05:32:03.334Z,14.20
2024-05-09T05:42:05.939Z,14.20
2024-05-09T05:52:08.571Z,13.90
2024-05-09T06:02:11.196Z,13.60
2024-05-09T06:12:13.963Z,13.50
2024-05-09T06:22:16.574Z,13.40
2024-05-09T06:32:19.261Z,13.40
2024-05-09T06:42:21.839Z,13.20
2024-05-09T06:52:24.394Z,13.00
2024-05-09T07:02:27.161Z,13.20
2024-05-09T07:12:29.854Z,12.70
2024-05-09T07:22:32.463Z,12.70
2024-05-09T07:32:35.115Z,12.60
2024-05-09T07:42:37.723Z,12.50
2024-05-09T08:02:48.521Z,12.00
2024-05-09T08:12:51.235Z,11.90
2024-05-09T08:22:53.887Z,12.00
2024-05-09T08:32:56.608Z,11.90
2024-05-09T08:42:59.355Z,11.80
2024-05-09T08:53:02.024Z,11.70
2024-05-09T09:03:04.746Z,11.50
2024-05-09T09:13:07.592Z,11.60
2024-05-09T09:23:10.200Z,11.40
2024-05-09T09:33:13.026Z,11.40
2024-05-09T09:43:16.024Z,11.30
2024-05-09T09:53:18.720Z,11.30
2024-05-09T10:03:21.397Z,11.30
2024-05-09T10:13:24.158Z,11.10
2024-05-09T10:23:26.918Z,10.90
2024-05-09T10:33:29.652Z,10.80
2024-05-09T10:43:32.292Z,10.70
2024-05-09T10:53:34.893Z,10.70
2024-05-09T11:03:37.901Z,10.80
2024-05-09T11:13:40.985Z,10.90
2024-05-09T11:23:44.980Z,11.00
2024-05-09T11:33:47.755Z,11.00
2024-05-09T11:43:50.497Z,10.80
2024-05-09T11:53:53.100Z,10.70
2024-05-09T12:03:55.891Z,10.60
2024-05-09T12:13:58.562Z,10.30
2024-05-09T12:24:01.204Z,10.10
2024-05-09T12:34:04.056Z,10.10
2024-05-09T12:44:06.737Z,10.10
2024-05-09T12:54:09.347Z,10.00
2024-05-09T13:04:12.130Z,9.90
2024-05-09T13:14:14.752Z,9.80
2024-05-09T13:24:17.345Z,9.80
2024-05-09T13:34:20.067Z,9.90
2024-05-09T13:44:22.693Z,10.10
2024-05-09T13:54:25.291Z,10.20
2024-05-09T14:04:28.080Z,10.40
2024-05-09T14:14:30.764Z,10.60
2024-05-09T14:24:33.363Z,10.80
2024-05-09T14:34:36.059Z,11.10
2024-05-09T14:44:38.741Z,11.50
2024-05-09T14:54:41.615Z,11.90
2024-05-09T15:04:44.371Z,12.30
2024-05-09T15:14:47.039Z,12.80
2024-05-09T15:24:49.761Z,13.40
2024-05-09T15:34:52.391Z,14.10
2024-05-09T15:44:54.992Z,14.90
2024-05-09T15:54:57.608Z,15.70
2024-05-09T16:05:00.328Z,19.90
2024-05-09T16:15:03.062Z,20.70
2024-05-09T16:25:05.726Z,21.60
2024-05-09T16:35:08.397Z,21.80
2024-05-09T16:45:10.972Z,22.20
2024-05-09T16:55:13.820Z,22.40
2024-05-09T17:05:16.657Z,23.10
2024-05-09T17:15:19.327Z,23.60
2024-05-09T17:25:21.933Z,23.90
2024-05-09T17:35:24.496Z,24.90
2024-05-09T17:45:27.165Z,24.80
2024-05-09T17:55:30.350Z,24.10
2024-05-09T18:05:33.490Z,24.00
2024-05-09T18:15:36.553Z,24.60
2024-05-09T18:25:39.294Z,24.80
2024-05-09T18:35:41.932Z,25.20
2024-05-09T18:45:44.641Z,26.00
2024-05-09T18:55:47.275Z,26.70
2024-05-09T19:05:50.169Z,26.80
2024-05-09T19:15:52.965Z,27.50
2024-05-09T19:25:55.623Z,27.80
2024-05-09T19:35:58.174Z,27.70
2024-05-09T19:46:00.770Z,27.80
2024-05-09T19:56:03.427Z,28.80
2024-05-09T20:06:05.990Z,29.40
2024-05-09T20:16:08.684Z,29.10
2024-05-09T20:26:11.325Z,29.60
2024-05-09T20:36:16.283Z,30.50
2024-05-09T20:46:26.358Z,30.70
2024-05-09T20:56:29.024Z,30.40
2024-05-09T21:06:31.735Z,30.40
2024-05-09T21:16:34.461Z,32.20
2024-05-09T21:26:37.117Z,32.70
2024-05-09T21:36:39.764Z,32.60
2024-05-09T21:46:42.548Z,33.50
2024-05-09T21:56:45.518Z,33.30
2024-05-09T22:06:48.159Z,33.20
2024-05-09T22:16:50.969Z,36.30
2024-05-09T22:26:53.588Z,40.60
2024-05-09T22:36:56.176Z,45.00
2024-05-09T22:46:58.938Z,49.50
2024-05-09T22:57:01.552Z,50.20
2024-05-09T23:07:04.260Z,48.30
2024-05-09T23:17:06.916Z,49.80
2024-05-09T23:27:09.538Z,50.30
2024-05-09T23:37:12.126Z,47.80
2024-05-09T23:47:14.778Z,42.60
2024-05-09T23:57:17.454Z,37.70
